Time;durP1;ratioP1;P1;durP2;ratioP2;P2;SDS_P1;SDS_P2;PMS_P1;PMS_P2;Temp;Humidity;BMP_temperature;BMP_pressure;BME280_temperature;BME280_humidity;BME280_pressure;Samples;Min_cycle;Max_cycle;Signal;HPM_P1;HPM_P2
2021/08/21 00:01:59;;;;;;;4.00;3.30;;;15.40;1.00;;;;;;5073219;28;20541;-78
2021/08/21 00:04:28;;;;;;;5.23;3.30;;;15.30;1.00;;;;;;5055227;28;20870;-77
2021/08/21 00:06:58;;;;;;;4.50;3.53;;;15.30;1.00;;;;;;5056711;28;20236;-78
2021/08/21 00:09:58;;;;;;;4.23;3.77;;;15.30;1.00;;;;;;5056835;28;20779;-78
2021/08/21 00:12:24;;;;;;;4.43;3.03;;;15.20;1.00;;;;;;5056838;28;20401;-78
2021/08/21 00:15:05;;;;;;;5.20;3.63;;;15.20;1.00;;;;;;5056984;28;20394;-78
2021/08/21 00:18:03;;;;;;;3.53;3.07;;;15.20;1.00;;;;;;5056838;28;20267;-78
2021/08/21 00:20:29;;;;;;;3.50;3.20;;;15.20;1.00;;;;;;5058215;28;20406;-78
2021/08/21 00:23:04;;;;;;;6.93;3.77;;;15.30;1.00;;;;;;5076653;28;20393;-78
2021/08/21 00:25:30;;;;;;;4.30;3.10;;;15.10;1.00;;;;;;5076431;28;20178;-78
2021/08/21 00:27:56;;;;;;;4.17;3.60;;;15.10;1.00;;;;;;5074121;28;20435;-78
2021/08/21 00:30:23;;;;;;;5.30;4.10;;;15.10;1.00;;;;;;5071612;28;20419;-78
2021/08/21 00:32:50;;;;;;;7.90;4.00;;;15.10;1.00;;;;;;5056251;28;20186;-78
2021/08/21 00:35:16;;;;;;;3.57;3.27;;;15.10;1.00;;;;;;5074289;28;20432;-78
2021/08/21 00:37:42;;;;;;;7.50;4.13;;;15.00;1.00;;;;;;5063377;28;20418;-78
2021/08/21 00:40:33;;;;;;;6.57;4.17;;;15.00;1.00;;;;;;5070409;28;20214;-78
2021/08/21 00:43:04;;;;;;;5.40;3.50;;;15.00;1.00;;;;;;5075507;28;20450;-78
2021/08/21 00:45:30;;;;;;;5.80;4.00;;;15.00;1.00;;;;;;5056357;28;20482;-78
2021/08/21 00:47:56;;;;;;;5.93;4.00;;;15.00;1.00;;;;;;5056254;28;20520;-77
2021/08/21 00:50:28;;;;;;;6.83;4.60;;;15.00;1.00;;;;;;5054931;28;20176;-77
2021/08/21 00:52:54;;;;;;;6.37;4.30;;;15.00;1.00;;;;;;5055859;28;20405;-77
2021/08/21 00:55:39;;;;;;;6.20;4.87;;;15.00;1.00;;;;;;5056245;28;20403;-77
2021/08/21 00:58:21;;;;;;;7.40;4.30;;;15.00;1.00;;;;;;5069624;28;20193;-76
2021/08/21 01:01:04;;;;;;;8.93;4.77;;;14.90;1.00;;;;;;5075892;28;20368;-77
2021/08/21 01:03:40;;;;;;;13.00;4.40;;;14.90;1.00;;;;;;5075574;28;20432;-78
2021/08/21 01:06:16;;;;;;;9.77;5.03;;;14.90;1.00;;;;;;5075598;28;20405;-78
2021/08/21 01:08:46;;;;;;;9.93;5.23;;;15.00;1.00;;;;;;5055915;28;20787;-78
2021/08/21 01:11:16;;;;;;;7.70;4.20;;;15.00;1.00;;;;;;5055086;28;20391;-78
2021/08/21 01:13:59;;;;;;;5.10;4.60;;;15.00;1.00;;;;;;5055025;28;20811;-78
2021/08/21 01:16:40;;;;;;;6.40;4.50;;;15.20;1.00;;;;;;5069522;28;20952;-78
2021/08/21 01:19:19;;;;;;;9.50;4.70;;;15.10;1.00;;;;;;5055625;28;20826;-78
2021/08/21 01:21:45;;;;;;;6.57;4.63;;;15.10;1.00;;;;;;5055328;28;20398;-78
2021/08/21 01:24:16;;;;;;;7.73;4.77;;;15.20;1.00;;;;;;5055417;28;20414;-78
2021/08/21 01:26:55;;;;;;;7.50;5.07;;;15.30;1.00;;;;;;5054833;28;20452;-78
2021/08/21 01:29:22;;;;;;;9.53;5.33;;;15.30;1.00;;;;;;5070865;28;20441;-78
2021/08/21 01:32:09;;;;;;;8.30;5.23;;;15.40;1.00;;;;;;5070583;28;20461;-78
2021/08/21 01:34:35;;;;;;;7.23;5.07;;;15.40;1.00;;;;;;5055280;28;20395;-79
2021/08/21 01:37:10;;;;;;;9.27;5.47;;;15.40;1.00;;;;;;5068127;28;20509;-79
2021/08/21 01:39:40;;;;;;;13.33;5.40;;;15.50;1.00;;;;;;5061665;28;20798;-78
2021/08/21 01:42:17;;;;;;;10.83;5.20;;;15.50;1.00;;;;;;5074668;28;20385;-78
2021/08/21 01:44:46;;;;;;;10.13;5.00;;;15.60;1.00;;;;;;5061225;28;20406;-78
2021/08/21 01:47:16;;;;;;;6.67;5.00;;;15.60;1.00;;;;;;5055400;28;20481;-77
2021/08/21 01:50:06;;;;;;;10.03;5.50;;;15.70;1.00;;;;;;5054960;28;20394;-77
2021/08/21 01:52:32;;;;;;;17.20;5.50;;;15.70;1.00;;;;;;5054400;28;20398;-77
2021/08/21 01:55:05;;;;;;;12.10;5.63;;;15.70;1.00;;;;;;5054721;28;20845;-77
2021/08/21 01:57:46;;;;;;;7.47;4.90;;;15.70;1.00;;;;;;5054727;28;20178;-77
2021/08/21 02:00:13;;;;;;;5.63;4.27;;;15.70;1.00;;;;;;5073359;28;20452;-77
2021/08/21 02:02:58;;;;;;;13.23;5.60;;;15.80;1.00;;;;;;5073681;28;20830;-77
2021/08/21 02:05:24;;;;;;;7.17;4.90;;;15.80;1.00;;;;;;5074309;28;20406;-77
2021/08/21 02:07:58;;;;;;;10.67;5.30;;;15.70;1.00;;;;;;5071052;28;20472;-77
2021/08/21 02:10:34;;;;;;;6.57;5.20;;;15.70;1.00;;;;;;5054696;28;20366;-77
2021/08/21 02:13:10;;;;;;;9.53;5.50;;;15.70;1.00;;;;;;5057406;28;20410;-77
2021/08/21 02:15:36;;;;;;;6.90;5.07;;;15.70;1.00;;;;;;5053923;28;20378;-77
2021/08/21 02:18:01;;;;;;;8.20;5.43;;;15.80;1.00;;;;;;5055707;28;20460;-77
2021/08/21 02:20:27;;;;;;;13.83;6.30;;;15.80;1.00;;;;;;5061780;28;20237;-77
2021/08/21 02:22:53;;;;;;;7.00;5.13;;;15.80;1.00;;;;;;5073719;28;20159;-77
2021/08/21 02:25:19;;;;;;;7.23;4.97;;;15.80;1.00;;;;;;5073613;28;20187;-77
2021/08/21 02:27:57;;;;;;;10.97;5.10;;;15.80;1.00;;;;;;5069454;28;20413;-77
2021/08/21 02:30:23;;;;;;;9.20;5.40;;;15.80;1.00;;;;;;5052931;28;20263;-77
2021/08/21 02:32:49;;;;;;;7.17;4.90;;;15.80;1.00;;;;;;5053010;28;20388;-77
2021/08/21 02:35:14;;;;;;;8.97;5.33;;;15.90;1.00;;;;;;5070466;28;20406;-77
2021/08/21 02:38:03;;;;;;;13.23;5.60;;;15.90;1.00;;;;;;5071393;28;20241;-78
2021/08/21 02:40:29;;;;;;;8.07;5.33;;;15.80;1.00;;;;;;5054269;28;20215;-77
2021/08/21 02:42:58;;;;;;;10.37;4.97;;;15.90;1.00;;;;;;5054224;28;20778;-77
2021/08/21 02:45:28;;;;;;;6.20;5.33;;;15.90;1.00;;;;;;5070140;28;20901;-77
2021/08/21 02:47:58;;;;;;;8.37;4.90;;;15.80;1.00;;;;;;5056644;28;20487;-77
2021/08/21 02:50:34;;;;;;;8.23;5.80;;;15.80;1.00;;;;;;5057013;28;20425;-77
2021/08/21 02:53:00;;;;;;;9.77;6.10;;;15.80;1.00;;;;;;5074230;28;20386;-78
2021/08/21 02:55:34;;;;;;;9.30;5.80;;;15.80;1.00;;;;;;5073424;28;20931;-77
2021/08/21 02:57:59;;;;;;;12.97;6.63;;;15.80;1.00;;;;;;5072624;28;20913;-77
2021/08/21 03:00:46;;;;;;;13.13;5.63;;;15.70;1.00;;;;;;5054055;28;20460;-77
2021/08/21 03:03:12;;;;;;;7.40;5.63;;;15.70;1.00;;;;;;5052576;28;20183;-77
2021/08/21 03:05:38;;;;;;;8.90;6.33;;;15.70;1.00;;;;;;5053669;28;20390;-77
2021/08/21 03:08:04;;;;;;;11.63;5.80;;;15.60;1.00;;;;;;5053872;28;20382;-77
2021/08/21 03:10:34;;;;;;;7.70;5.67;;;15.60;1.00;;;;;;5053861;28;20390;-77
2021/08/21 03:13:04;;;;;;;7.17;5.73;;;15.60;1.00;;;;;;5058144;28;20401;-77
2021/08/21 03:15:30;;;;;;;12.07;5.80;;;15.50;1.00;;;;;;5058306;28;20381;-77
2021/08/21 03:17:59;;;;;;;10.63;5.90;;;15.50;1.00;;;;;;5053980;28;20882;-77
2021/08/21 03:20:26;;;;;;;9.40;6.00;;;15.40;1.00;;;;;;5055297;28;20391;-77
2021/08/21 03:22:52;;;;;;;13.40;5.70;;;15.40;1.00;;;;;;5056099;28;20917;-77
2021/08/21 03:25:18;;;;;;;7.20;5.43;;;15.30;1.00;;;;;;5073789;28;20360;-77
2021/08/21 03:27:52;;;;;;;8.30;5.57;;;15.40;1.00;;;;;;5073475;28;20487;-77
2021/08/21 03:30:18;;;;;;;9.33;6.70;;;15.20;1.00;;;;;;5056606;28;20501;-77
2021/08/21 03:32:46;;;;;;;9.50;6.33;;;15.30;1.00;;;;;;5053879;28;20852;-78
2021/08/21 03:35:11;;;;;;;8.73;6.00;;;15.20;1.00;;;;;;5055162;28;20483;-78
2021/08/21 03:38:09;;;;;;;9.37;6.50;;;15.10;1.00;;;;;;5066078;28;20922;-78
2021/08/21 03:40:40;;;;;;;11.73;6.33;;;15.10;1.00;;;;;;5071219;28;20377;-78
2021/08/21 03:43:05;;;;;;;9.10;6.10;;;15.00;1.00;;;;;;5076667;28;20367;-78
2021/08/21 03:45:36;;;;;;;6.57;5.57;;;15.10;1.00;;;;;;5061454;28;20414;-78
2021/08/21 03:48:04;;;;;;;9.27;6.60;;;15.00;1.00;;;;;;5066410;28;20175;-78
2021/08/21 03:50:30;;;;;;;12.37;6.60;;;14.90;1.00;;;;;;5063832;28;20811;-77
2021/08/21 03:52:56;;;;;;;10.67;6.23;;;14.90;1.00;;;;;;5057326;28;20509;-77
2021/08/21 03:55:22;;;;;;;9.80;6.33;;;14.80;1.00;;;;;;5057392;28;20179;-77
2021/08/21 03:57:58;;;;;;;11.90;6.87;;;14.90;1.00;;;;;;5066500;28;20535;-77
2021/08/21 04:00:34;;;;;;;9.27;6.83;;;14.80;1.00;;;;;;5071821;28;20415;-77
2021/08/21 04:02:59;;;;;;;9.97;6.47;;;14.80;1.00;;;;;;5072175;28;20731;-77
2021/08/21 04:05:29;;;;;;;7.27;5.83;;;14.80;1.00;;;;;;5056480;28;20436;-78
2021/08/21 04:07:56;;;;;;;10.70;6.73;;;14.70;1.00;;;;;;5056116;28;20144;-78
2021/08/21 04:10:22;;;;;;;10.20;6.30;;;14.60;1.00;;;;;;5065468;28;20416;-80
2021/08/21 04:12:48;;;;;;;9.20;6.97;;;14.60;1.00;;;;;;5069838;28;20418;-78
2021/08/21 04:15:13;;;;;;;14.13;7.00;;;14.60;1.00;;;;;;5072754;28;20934;-78
2021/08/21 04:17:39;;;;;;;10.90;6.60;;;14.60;1.00;;;;;;5055554;28;20188;-78
2021/08/21 04:20:10;;;;;;;8.93;6.63;;;14.60;1.00;;;;;;5062250;28;20480;-77
2021/08/21 04:22:40;;;;;;;9.33;6.70;;;14.60;1.00;;;;;;5076409;28;20157;-77
2021/08/21 04:25:10;;;;;;;11.00;6.40;;;14.50;1.00;;;;;;5076520;28;20368;-77
2021/08/21 04:27:40;;;;;;;13.93;7.03;;;14.50;1.00;;;;;;5071164;28;20818;-77
2021/08/21 04:30:06;;;;;;;9.03;7.03;;;14.50;1.00;;;;;;5060740;28;20396;-77
2021/08/21 04:32:32;;;;;;;14.53;7.20;;;14.50;1.00;;;;;;5058935;28;20442;-78
2021/08/21 04:34:58;;;;;;;11.73;7.37;;;14.50;1.00;;;;;;5057206;28;20394;-78
2021/08/21 04:37:28;;;;;;;12.10;7.10;;;14.50;1.00;;;;;;5067184;28;20514;-78
2021/08/21 04:40:10;;;;;;;10.80;7.30;;;14.50;1.00;;;;;;5058823;28;20893;-77
2021/08/21 04:43:03;;;;;;;11.23;7.23;;;14.60;1.00;;;;;;5056142;28;20468;-78
2021/08/21 04:45:34;;;;;;;13.73;7.50;;;14.60;1.00;;;;;;5056148;28;20876;-78
2021/08/21 04:48:10;;;;;;;21.43;7.30;;;14.60;1.00;;;;;;5055026;28;20855;-77
2021/08/21 04:50:40;;;;;;;14.43;6.30;;;14.70;1.00;;;;;;5055868;28;20903;-76
2021/08/21 04:53:16;;;;;;;10.77;6.97;;;14.70;1.00;;;;;;5068142;28;20401;-76
2021/08/21 04:55:46;;;;;;;13.70;6.53;;;14.70;1.00;;;;;;5075908;28;20381;-76
2021/08/21 04:58:16;;;;;;;12.97;7.07;;;14.80;1.00;;;;;;5075787;28;20821;-76
2021/08/21 05:00:52;;;;;;;13.80;7.00;;;15.00;1.00;;;;;;5073090;28;20421;-76
2021/08/21 05:03:17;;;;;;;10.60;7.10;;;15.00;1.00;;;;;;5055685;28;20444;-76
2021/08/21 05:05:46;;;;;;;8.00;6.67;;;15.00;1.00;;;;;;5056232;28;20979;-77
2021/08/21 05:08:11;;;;;;;11.53;6.80;;;15.10;1.00;;;;;;5071345;28;20163;-78
2021/08/21 05:10:37;;;;;;;9.73;7.30;;;15.20;1.00;;;;;;5065578;28;20467;-77
2021/08/21 05:13:03;;;;;;;9.70;6.00;;;15.30;1.00;;;;;;5055396;28;20167;-77
2021/08/21 05:15:33;;;;;;;14.13;6.77;;;15.30;1.00;;;;;;5055569;28;20156;-77
2021/08/21 05:18:00;;;;;;;8.73;6.30;;;15.50;1.00;;;;;;5055115;28;20399;-77
2021/08/21 05:20:53;;;;;;;9.73;6.83;;;15.50;1.00;;;;;;5054877;28;20419;-77
2021/08/21 05:23:28;;;;;;;8.77;6.20;;;15.60;1.00;;;;;;5055527;28;20413;-77
2021/08/21 05:25:58;;;;;;;9.53;6.23;;;15.80;1.00;;;;;;5055246;28;20848;-78
2021/08/21 05:28:40;;;;;;;9.80;5.97;;;15.90;1.00;;;;;;5065994;28;20376;-77
2021/08/21 05:31:05;;;;;;;9.60;5.93;;;16.00;1.00;;;;;;5055155;28;20479;-77
2021/08/21 05:33:34;;;;;;;8.57;6.13;;;16.10;1.00;;;;;;5054823;28;20414;-77
2021/08/21 05:35:59;;;;;;;13.13;6.37;;;16.20;1.00;;;;;;5061017;28;20172;-77
2021/08/21 05:38:34;;;;;;;8.17;6.00;;;16.20;1.00;;;;;;5061557;28;20463;-77
2021/08/21 05:41:00;;;;;;;8.77;6.10;;;16.30;1.00;;;;;;5061548;28;20498;-77
2021/08/21 05:43:28;;;;;;;8.43;5.97;;;16.40;1.00;;;;;;5074223;28;20439;-77
2021/08/21 05:45:54;;;;;;;9.70;6.17;;;16.50;1.00;;;;;;5054963;28;20178;-77
2021/08/21 05:48:19;;;;;;;7.93;5.77;;;16.50;1.00;;;;;;5054663;28;20365;-77
2021/08/21 05:50:45;;;;;;;6.63;5.60;;;16.70;1.00;;;;;;5057043;28;20278;-77
2021/08/21 05:53:11;;;;;;;6.37;4.90;;;16.70;1.00;;;;;;5073484;28;20167;-77
2021/08/21 05:55:40;;;;;;;7.90;6.00;;;16.80;1.00;;;;;;5074578;28;20168;-76
2021/08/21 05:58:39;;;;;;;7.97;5.93;;;14.70;1.00;;;;;;5072299;28;20669;-76
2021/08/21 06:04:28;;;;;;;10.67;4.50;;;17.10;1.00;;;;;;5074203;28;20755;-78
2021/08/21 06:07:05;;;;;;;8.63;4.93;;;17.10;1.00;;;;;;5073894;28;21010;-79
2021/08/21 06:09:30;;;;;;;7.70;4.63;;;17.20;1.00;;;;;;5055521;28;20393;-79
2021/08/21 06:11:56;;;;;;;7.03;4.93;;;17.30;1.00;;;;;;5054653;28;20422;-79
2021/08/21 06:14:22;;;;;;;6.67;4.50;;;17.40;1.00;;;;;;5053992;28;20160;-79
2021/08/21 06:16:58;;;;;;;6.80;5.20;;;17.40;1.00;;;;;;5054076;28;20160;-79
2021/08/21 06:19:29;;;;;;;6.73;4.63;;;17.50;1.00;;;;;;5062680;28;20189;-79
2021/08/21 06:22:05;;;;;;;5.30;4.27;;;17.60;1.00;;;;;;5054328;28;20897;-78
2021/08/21 06:24:34;;;;;;;6.93;4.17;;;17.70;1.00;;;;;;5052616;28;20490;-78
2021/08/21 06:27:10;;;;;;;9.33;4.50;;;17.70;1.00;;;;;;5053813;28;20928;-79
2021/08/21 06:29:36;;;;;;;9.10;5.10;;;17.80;1.00;;;;;;5054217;28;20454;-73
2021/08/21 06:32:06;;;;;;;5.43;4.20;;;17.90;1.00;;;;;;5065985;28;20410;-73
2021/08/21 06:34:46;;;;;;;10.57;5.20;;;18.00;1.00;;;;;;5066855;28;20903;-76
2021/08/21 06:38:03;;;;;;;8.70;5.00;;;18.10;1.00;;;;;;5064624;28;20414;-87
2021/08/21 06:40:46;;;;;;;7.60;5.00;;;18.20;1.00;;;;;;5054678;28;20435;-84
2021/08/21 06:46:34;;;;;;;7.80;4.80;;;18.30;1.00;;;;;;5053660;28;20388;-85
2021/08/21 06:49:04;;;;;;;7.20;4.63;;;18.50;1.00;;;;;;5053827;28;20413;-84
2021/08/21 06:51:29;;;;;;;6.30;4.77;;;18.60;1.00;;;;;;5052903;28;21052;-82
2021/08/21 06:54:04;;;;;;;7.57;4.83;;;18.70;1.00;;;;;;5052349;28;20450;-79
2021/08/21 06:56:52;;;;;;;7.30;5.20;;;18.70;1.00;;;;;;5060902;28;20181;-78
2021/08/21 06:59:18;;;;;;;7.57;4.70;;;18.80;1.00;;;;;;5058484;28;20460;-78
2021/08/21 07:01:46;;;;;;;8.00;4.50;;;18.90;1.00;;;;;;5073379;28;20370;-77
2021/08/21 07:04:22;;;;;;;7.70;4.90;;;18.90;1.00;;;;;;5073807;28;21017;-78
2021/08/21 07:06:48;;;;;;;6.77;3.97;;;19.20;1.00;;;;;;5073941;28;20481;-78
2021/08/21 07:09:22;;;;;;;6.00;4.60;;;19.20;1.00;;;;;;5068690;28;20413;-78
2021/08/21 07:11:48;;;;;;;5.10;4.60;;;19.30;1.00;;;;;;5053705;28;20397;-78
2021/08/21 07:14:16;;;;;;;5.00;4.50;;;19.40;1.00;;;;;;5056642;28;20404;-78
2021/08/21 07:16:52;;;;;;;4.90;3.90;;;19.70;1.00;;;;;;5057849;28;20389;-78
2021/08/21 07:19:18;;;;;;;5.70;4.30;;;;;;;;;;5058785;28;20965;-77
2021/08/21 07:21:44;;;;;;;4.17;3.80;;;19.90;1.00;;;;;;5058113;28;20879;-77
2021/08/21 07:24:10;;;;;;;6.73;3.70;;;20.10;1.00;;;;;;5057828;28;20405;-77
2021/08/21 07:26:40;;;;;;;6.03;3.80;;;20.30;1.00;;;;;;5057701;28;20427;-77
2021/08/21 07:29:06;;;;;;;6.80;4.30;;;20.40;1.00;;;;;;5057330;28;20391;-77
2021/08/21 07:31:46;;;;;;;7.90;3.93;;;20.70;1.00;;;;;;5058910;28;20435;-79
2021/08/21 07:34:22;;;;;;;5.60;3.90;;;20.90;1.00;;;;;;5077074;28;20225;-77
2021/08/21 07:37:04;;;;;;;8.93;3.50;;;20.90;1.00;;;;;;5070032;28;20503;-77
2021/08/21 07:39:30;;;;;;;4.87;3.87;;;21.00;1.00;;;;;;5056960;28;20454;-77
2021/08/21 07:41:56;;;;;;;5.43;4.50;;;20.90;1.00;;;;;;5057464;28;20422;-78
2021/08/21 07:44:34;;;;;;;8.87;4.07;;;21.00;1.00;;;;;;5071465;28;20187;-78
2021/08/21 07:47:16;;;;;;;5.77;4.10;;;21.00;1.00;;;;;;5076828;28;20400;-77
2021/08/21 07:49:42;;;;;;;4.37;3.97;;;21.00;1.00;;;;;;5077209;28;20772;-77
2021/08/21 07:52:17;;;;;;;5.80;4.00;;;21.10;1.00;;;;;;5066599;28;20425;-77
2021/08/21 07:54:43;;;;;;;5.07;3.97;;;21.10;1.00;;;;;;5060554;28;20212;-77
2021/08/21 07:57:22;;;;;;;8.20;3.80;;;21.20;1.00;;;;;;5056863;28;20465;-78
2021/08/21 07:59:48;;;;;;;7.60;4.60;;;21.10;1.00;;;;;;5056741;28;20203;-77
2021/08/21 08:02:16;;;;;;;6.97;4.30;;;21.10;1.00;;;;;;5055143;28;20787;-77
2021/08/21 08:04:42;;;;;;;4.77;3.93;;;21.10;1.00;;;;;;5056385;28;20177;-78
2021/08/21 08:07:33;;;;;;;6.87;4.60;;;21.10;1.00;;;;;;5056908;28;20448;-77
2021/08/21 08:10:10;;;;;;;8.73;4.57;;;21.20;1.00;;;;;;5068661;28;20184;-77
2021/08/21 08:12:52;;;;;;;4.37;3.70;;;21.20;1.00;;;;;;5076186;28;20410;-77
2021/08/21 08:15:45;;;;;;;10.23;4.10;;;21.10;1.00;;;;;;5056760;28;20423;-78
2021/08/21 08:18:16;;;;;;;8.23;3.97;;;21.10;1.00;;;;;;5056378;28;20447;-78
2021/08/21 08:20:42;;;;;;;5.33;4.40;;;21.10;1.00;;;;;;5064827;28;20457;-78
2021/08/21 08:23:11;;;;;;;4.57;4.03;;;21.30;1.00;;;;;;5072118;28;20478;-78
2021/08/21 08:25:37;;;;;;;5.37;4.57;;;21.40;1.00;;;;;;5075024;28;20449;-77
2021/08/21 08:28:03;;;;;;;5.37;4.43;;;21.50;1.00;;;;;;5071755;28;20416;-77
2021/08/21 08:30:34;;;;;;;9.03;4.57;;;21.50;1.00;;;;;;5056357;28;20758;-77
2021/08/21 08:33:22;;;;;;;8.17;3.97;;;21.70;1.00;;;;;;5056974;28;20519;-77
2021/08/21 08:35:51;;;;;;;7.27;3.83;;;21.70;1.00;;;;;;5059464;28;20489;-78
2021/08/21 08:38:35;;;;;;;6.03;4.30;;;21.80;1.00;;;;;;5068664;28;20424;-78
2021/08/21 08:41:21;;;;;;;4.67;3.87;;;21.90;1.00;;;;;;5060957;28;20448;-78
2021/08/21 08:44:12;;;;;;;4.60;3.47;;;22.00;1.00;;;;;;5056067;28;20428;-78
2021/08/21 08:46:39;;;;;;;5.43;4.33;;;22.00;1.00;;;;;;5062467;28;20459;-77
2021/08/21 08:49:11;;;;;;;5.60;3.90;;;22.00;1.00;;;;;;5059765;28;20418;-77
2021/08/21 08:51:47;;;;;;;4.43;3.97;;;22.10;1.00;;;;;;5073149;28;20491;-78
2021/08/21 08:54:14;;;;;;;4.73;4.10;;;22.30;1.00;;;;;;5055920;28;20416;-78
2021/08/21 08:56:58;;;;;;;7.87;3.77;;;22.60;1.00;;;;;;5058820;28;20406;-77
2021/08/21 08:59:40;;;;;;;4.67;4.10;;;22.70;1.00;;;;;;5075580;28;20441;-77
2021/08/21 09:02:10;;;;;;;7.03;3.43;;;22.80;1.00;;;;;;5073386;28;20398;-77
2021/08/21 09:04:36;;;;;;;4.13;3.73;;;23.20;1.00;;;;;;5075473;28;20395;-78
2021/08/21 09:07:09;;;;;;;5.40;3.90;;;;;;;;;;5068959;28;20934;-78
2021/08/21 09:09:34;;;;;;;9.20;4.30;;;23.40;1.00;;;;;;5073434;28;20439;-77
2021/08/21 09:12:00;;;;;;;3.80;3.50;;;23.50;1.00;;;;;;5071863;28;20853;-77
2021/08/21 09:14:29;;;;;;;5.43;3.90;;;23.70;1.00;;;;;;5062430;28;20185;-77
2021/08/21 09:17:21;;;;;;;4.10;3.70;;;23.60;1.00;;;;;;5060014;28;20181;-77
2021/08/21 09:20:00;;;;;;;6.03;3.97;;;23.60;1.00;;;;;;5066127;28;20467;-78
2021/08/21 09:22:26;;;;;;;3.73;3.43;;;23.60;1.00;;;;;;5062869;28;20442;-74
2021/08/21 09:24:51;;;;;;;4.90;3.40;;;23.60;1.00;;;;;;5067604;28;20418;-73
2021/08/21 09:27:23;;;;;;;5.63;3.67;;;23.70;1.00;;;;;;5060416;28;20657;-73
2021/08/21 09:30:26;;;;;;;4.00;3.57;;;23.80;1.00;;;;;;5054731;28;20181;-78
2021/08/21 09:33:01;;;;;;;5.63;3.37;;;23.80;1.00;;;;;;5057885;28;20426;-78
2021/08/21 09:35:51;;;;;;;4.13;3.77;;;24.20;1.00;;;;;;5061061;28;20416;-78
2021/08/21 09:38:17;;;;;;;8.07;3.83;;;24.50;1.00;;;;;;5066543;28;20423;-78
2021/08/21 09:40:46;;;;;;;5.23;3.50;;;24.50;1.00;;;;;;5070204;28;20425;-78
2021/08/21 09:43:22;;;;;;;4.03;3.70;;;24.80;1.00;;;;;;5068229;28;20774;-78
2021/08/21 09:46:14;;;;;;;26.93;7.20;;;24.90;1.00;;;;;;5072935;28;20437;-78
2021/08/21 09:49:06;;;;;;;11.50;4.50;;;25.00;1.00;;;;;;5074679;28;20477;-78
2021/08/21 09:51:46;;;;;;;4.10;3.40;;;25.10;1.00;;;;;;5070067;28;20513;-78
2021/08/21 09:54:18;;;;;;;8.93;3.43;;;25.20;1.00;;;;;;5054434;28;20456;-78
2021/08/21 09:56:53;;;;;;;7.70;3.57;;;25.10;1.00;;;;;;5072970;28;20524;-78
2021/08/21 09:59:35;;;;;;;3.70;3.40;;;25.10;1.00;;;;;;5070330;28;20868;-78
2021/08/21 10:02:06;;;;;;;4.33;3.20;;;25.20;1.00;;;;;;5084670;28;20440;-78
2021/08/21 10:04:35;;;;;;;8.93;3.13;;;25.30;1.00;;;;;;5069112;28;20417;-78
2021/08/21 10:07:04;;;;;;;5.93;3.17;;;25.30;1.00;;;;;;5067832;28;20464;-78
2021/08/21 10:09:40;;;;;;;3.93;3.10;;;25.30;1.00;;;;;;5071472;28;20443;-79
2021/08/21 10:12:08;;;;;;;3.50;3.20;;;25.60;1.00;;;;;;5065469;28;20465;-79
2021/08/21 10:14:52;;;;;;;3.90;3.50;;;25.60;1.00;;;;;;5067681;28;20577;-87
2021/08/21 10:17:19;;;;;;;4.03;2.83;;;25.50;1.00;;;;;;5065940;28;20432;-86
2021/08/21 10:19:48;;;;;;;10.23;3.33;;;25.50;1.00;;;;;;5069910;28;20469;-88
2021/08/21 10:22:14;;;;;;;3.90;2.80;;;;;;;;;;5072743;28;20440;-86
2021/08/21 10:24:42;;;;;;;9.20;3.53;;;25.70;1.00;;;;;;5067483;28;20461;-78
2021/08/21 10:27:28;;;;;;;4.30;3.13;;;25.70;1.00;;;;;;5060024;28;20427;-79
2021/08/21 10:30:03;;;;;;;3.40;3.10;;;25.80;1.00;;;;;;5074676;28;20965;-79
2021/08/21 10:32:58;;;;;;;5.27;2.77;;;25.70;1.00;;;;;;5054161;28;20789;-79
2021/08/21 10:35:54;;;;;;;4.00;2.83;;;25.80;1.00;;;;;;5061589;28;20430;-79
2021/08/21 10:38:36;;;;;;;3.83;2.80;;;26.00;1.00;;;;;;5062954;28;20843;-77
2021/08/21 10:41:10;;;;;;;4.80;2.60;;;26.20;1.00;;;;;;5054210;28;20830;-76
2021/08/21 10:43:53;;;;;;;2.80;2.60;;;26.30;1.00;;;;;;5072031;28;20503;-78
2021/08/21 10:46:39;;;;;;;4.70;3.20;;;26.40;1.00;;;;;;5053957;28;20905;-77
2021/08/21 10:49:07;;;;;;;4.13;2.90;;;26.60;1.00;;;;;;5065100;28;20437;-78
2021/08/21 10:51:46;;;;;;;2.97;2.53;;;26.60;1.00;;;;;;5053782;28;20474;-77
2021/08/21 10:54:40;;;;;;;2.97;2.77;;;26.80;1.00;;;;;;5054337;28;20417;-78
2021/08/21 10:57:31;;;;;;;14.20;3.70;;;27.00;1.00;;;;;;5054010;28;20421;-78
2021/08/21 11:00:34;;;;;;;3.47;3.10;;;27.00;1.00;;;;;;5052819;28;20468;-78
2021/08/21 11:03:11;;;;;;;13.07;2.73;;;27.00;1.00;;;;;;5053604;28;20448;-78
2021/08/21 11:05:54;;;;;;;3.20;2.90;;;27.00;1.00;;;;;;5053771;28;20560;-78
2021/08/21 11:08:43;;;;;;;3.07;2.80;;;27.00;1.00;;;;;;5053975;28;20422;-79
2021/08/21 11:11:26;;;;;;;4.40;2.90;;;26.80;1.00;;;;;;5009211;28;20432;-79
2021/08/21 11:14:10;;;;;;;3.10;2.80;;;26.90;1.00;;;;;;5011629;28;20424;-79
2021/08/21 11:16:57;;;;;;;2.07;1.97;;;27.00;1.00;;;;;;5011432;28;20522;-79
2021/08/21 11:19:35;;;;;;;6.20;2.40;;;27.00;1.00;;;;;;5012125;28;20471;-79
2021/08/21 11:22:30;;;;;;;2.10;2.00;;;27.00;1.00;;;;;;5011450;28;20562;-84
2021/08/21 11:25:07;;;;;;;50.63;10.33;;;27.10;1.00;;;;;;5001365;28;20455;-84
2021/08/21 11:27:36;;;;;;;2.73;2.53;;;27.20;1.00;;;;;;5003156;28;20436;-83
2021/08/21 11:30:24;;;;;;;4.40;3.10;;;27.30;1.00;;;;;;5003976;28;20433;-83
2021/08/21 11:33:03;;;;;;;3.03;2.80;;;27.40;1.00;;;;;;5009118;28;20513;-83
2021/08/21 11:35:58;;;;;;;3.90;2.27;;;27.40;1.00;;;;;;5016842;28;20427;-82
2021/08/21 11:38:29;;;;;;;2.70;2.50;;;27.70;1.00;;;;;;5011529;28;20428;-83
2021/08/21 11:41:10;;;;;;;2.73;2.53;;;27.90;1.00;;;;;;5009818;28;20438;-83
2021/08/21 11:43:41;;;;;;;3.77;2.47;;;27.90;1.00;;;;;;4994798;28;20433;-82
2021/08/21 11:46:08;;;;;;;2.87;2.63;;;28.00;1.00;;;;;;5011372;28;20406;-83
2021/08/21 11:48:40;;;;;;;2.70;2.50;;;28.10;1.00;;;;;;5047866;28;20420;-83
2021/08/21 11:51:39;;;;;;;2.83;2.50;;;28.20;1.00;;;;;;5057699;28;20500;-83
2021/08/21 11:54:16;;;;;;;3.03;2.03;;;28.20;1.00;;;;;;5059538;28;20443;-83
2021/08/21 11:56:56;;;;;;;3.00;2.70;;;28.30;1.00;;;;;;5072483;28;20499;-84
2021/08/21 11:59:22;;;;;;;2.70;2.40;;;28.30;1.00;;;;;;5085846;28;20461;-83
2021/08/21 12:02:08;;;;;;;5.20;2.50;;;28.30;1.00;;;;;;5072458;28;20428;-83
2021/08/21 12:04:34;;;;;;;2.90;2.57;;;28.20;1.00;;;;;;5055214;28;20411;-83
2021/08/21 12:07:31;;;;;;;3.27;2.50;;;28.20;1.00;;;;;;5056905;28;20429;-83
2021/08/21 12:09:58;;;;;;;2.50;2.30;;;28.30;1.00;;;;;;5070489;28;20481;-83
2021/08/21 12:12:35;;;;;;;4.70;2.60;;;28.20;1.00;;;;;;5076282;28;20405;-83
2021/08/21 12:15:10;;;;;;;2.83;2.63;;;28.20;1.00;;;;;;5076305;28;20886;-83
2021/08/21 12:17:36;;;;;;;2.93;2.63;;;28.30;1.00;;;;;;5075559;28;20404;-87
2021/08/21 12:20:04;;;;;;;2.93;2.73;;;28.60;1.00;;;;;;5069031;28;20869;-82
2021/08/21 12:22:30;;;;;;;3.83;2.40;;;28.50;1.00;;;;;;5074522;28;20166;-78
2021/08/21 12:24:58;;;;;;;4.00;2.30;;;28.60;1.00;;;;;;5073981;28;20845;-77
2021/08/21 12:27:26;;;;;;;2.37;2.27;;;28.80;1.00;;;;;;5070714;28;20171;-77
2021/08/21 12:30:14;;;;;;;2.53;2.33;;;28.80;1.00;;;;;;5056230;28;20429;-77
2021/08/21 12:33:09;;;;;;;2.77;2.57;;;29.10;1.00;;;;;;5076368;28;20423;-77
2021/08/21 12:35:35;;;;;;;3.57;2.80;;;;;;;;;;5077285;28;20453;-77
2021/08/21 12:38:06;;;;;;;2.83;2.53;;;29.20;1.00;;;;;;5071380;28;20421;-77
2021/08/21 12:40:32;;;;;;;5.50;2.43;;;29.40;1.00;;;;;;5056575;28;20457;-78
2021/08/21 12:43:06;;;;;;;4.30;2.20;;;29.60;1.00;;;;;;5060471;28;20407;-78
2021/08/21 12:45:44;;;;;;;2.63;2.43;;;29.70;1.00;;;;;;5074673;28;20211;-80
2021/08/21 12:48:10;;;;;;;9.57;3.27;;;30.00;1.00;;;;;;5075465;28;20417;-78
2021/08/21 12:50:51;;;;;;;2.80;2.60;;;30.30;1.00;;;;;;5075649;28;20432;-80
2021/08/21 12:53:24;;;;;;;2.60;2.50;;;30.20;1.00;;;;;;5074351;28;20449;-81
2021/08/21 12:56:18;;;;;;;2.87;2.40;;;30.30;1.00;;;;;;5061107;28;20409;-83
2021/08/21 12:59:11;;;;;;;10.53;2.70;;;30.10;1.00;;;;;;4977920;28;20464;-83
2021/08/21 13:01:40;;;;;;;4.77;2.23;;;29.70;1.00;;;;;;4993815;28;20480;-83
2021/08/21 13:04:11;;;;;;;4.83;2.73;;;29.60;1.00;;;;;;4993942;28;20439;-83
2021/08/21 13:06:38;;;;;;;4.00;2.30;;;29.70;1.00;;;;;;4995283;28;20908;-83
2021/08/21 13:09:11;;;;;;;4.43;3.00;;;29.80;1.00;;;;;;4994159;28;20928;-81
2021/08/21 13:11:38;;;;;;;5.30;2.47;;;29.90;1.00;;;;;;5000860;28;20431;-81
2021/08/21 13:14:10;;;;;;;2.90;2.60;;;30.00;1.00;;;;;;5011634;28;20505;-83
2021/08/21 13:17:04;;;;;;;4.80;2.40;;;30.20;1.00;;;;;;4996738;28;20471;-83
2021/08/21 13:19:40;;;;;;;2.87;2.67;;;30.40;1.00;;;;;;4998473;28;20460;-83
2021/08/21 13:22:06;;;;;;;4.70;2.53;;;30.30;1.00;;;;;;5011561;28;20840;-83
2021/08/21 13:24:40;;;;;;;3.23;2.73;;;30.20;1.00;;;;;;5009790;28;20443;-84
2021/08/21 13:27:22;;;;;;;2.67;2.47;;;30.10;1.00;;;;;;5013126;28;20190;-84
2021/08/21 13:29:48;;;;;;;4.73;2.70;;;29.90;1.00;;;;;;5009275;28;20443;-78
2021/08/21 13:32:22;;;;;;;5.00;3.00;;;29.90;1.00;;;;;;5008215;28;20443;-78
2021/08/21 13:34:52;;;;;;;3.23;2.93;;;30.20;1.00;;;;;;5006177;28;20432;-78
2021/08/21 13:37:28;;;;;;;8.80;3.30;;;30.20;1.00;;;;;;5054428;28;20445;-78